»·PEaware :: N485KB KBFL-KSBA

N485KB :: KBFL-KSBA

FLIGHT INFORMATION

Flight Status: Arrived
Operator: Privately registered:
United States
More flights under this callsign
Pilot: Lance M. (26269)
Aircraft: CIRRUS SR-22
(SR22)
More flights by this aircraft type
Origin: KBFL Meadows
United States
Destination: KSBA Santa Barbara Mun
United States
More flights between these airports :: More routes between these airports
Route: +MEADO4 RZS
File this flight plan on PilotEdge
Remarks:
Altitude:
(Current/Filed)
10,000ft
Speed:
(Current/Filed)
180kts
Departed: 08-Feb-20 09:04 AM
Arrived: 08-Feb-20 09:47 AM
Distance/Time
Traveled:
72nm/0:43
Distance/Time
To Go:
Arrived

Flight Plot

Page will automatically refresh every two minutes.

Flight plan parsing failed; only flown route is shown


Map Options




Map Legend


Flown Route
Filed Route
Departure Airport
Arrival Airport
Navaid (VOR, NDB)
Fix

Horizontal Profiles

Position Reports

Time Latitude Longitude Heading Altitude Ground
Speed
08-Feb-20 08:46 35.429370 -119.046102 226 509ft 0kts
08-Feb-20 08:47 35.429370 -119.046102 226 509ft 0kts
08-Feb-20 08:48 35.429370 -119.046102 226 509ft 0kts
08-Feb-20 08:49 35.429370 -119.046102 226 509ft 0kts
08-Feb-20 08:50 35.429370 -119.046102 226 509ft 0kts
08-Feb-20 08:51 35.429370 -119.046102 226 509ft 0kts
08-Feb-20 08:52 35.429369 -119.046103 225 509ft 0kts
08-Feb-20 08:53 35.429369 -119.046103 225 509ft 0kts
08-Feb-20 08:54 35.429369 -119.046103 225 509ft 0kts
08-Feb-20 08:55 35.429369 -119.046103 225 509ft 0kts
08-Feb-20 08:56 35.429369 -119.046103 225 509ft 0kts
08-Feb-20 08:57 35.428925 -119.046700 225 509ft 13kts
08-Feb-20 08:58 35.426407 -119.045131 131 509ft 20kts
08-Feb-20 08:59 35.425796 -119.044593 214 509ft 0kts
08-Feb-20 09:00 35.425796 -119.044593 214 509ft 0kts
08-Feb-20 09:01 35.425796 -119.044593 214 509ft 0kts
08-Feb-20 09:02 35.425782 -119.044604 215 509ft 2kts
08-Feb-20 09:03 35.435741 -119.059021 313 1203ft 95kts
08-Feb-20 09:04 35.459229 -119.090173 313 2607ft 140kts
08-Feb-20 09:05 35.488907 -119.129898 313 2944ft 168kts
08-Feb-20 09:06 35.475789 -119.174189 222 3783ft 162kts
08-Feb-20 09:08 35.443221 -119.208063 222 5275ft 145kts
08-Feb-20 09:09 35.412031 -119.239261 222 6805ft 147kts
08-Feb-20 09:10 35.379816 -119.270442 222 8213ft 147kts
08-Feb-20 09:11 35.347770 -119.300298 222 9615ft 142kts
08-Feb-20 09:12 35.312368 -119.332990 221 10011ft 182kts
08-Feb-20 09:13 35.263706 -119.360902 208 10007ft 196kts
08-Feb-20 09:14 35.213545 -119.388481 208 10007ft 198kts
08-Feb-20 09:15 35.163062 -119.416159 208 10007ft 198kts
08-Feb-20 09:16 35.112849 -119.443648 208 10034ft 198kts
08-Feb-20 09:17 35.062932 -119.470933 208 10034ft 194kts
08-Feb-20 09:18 35.013523 -119.497930 207 10031ft 194kts
08-Feb-20 09:19 34.963989 -119.524950 207 10023ft 195kts
08-Feb-20 09:20 34.914243 -119.552036 206 10016ft 196kts
08-Feb-20 09:21 34.864530 -119.579050 205 10009ft 195kts
08-Feb-20 09:22 34.814975 -119.605923 205 10009ft 195kts
08-Feb-20 09:23 34.765373 -119.632824 205 10008ft 195kts
08-Feb-20 09:24 34.715698 -119.659731 205 10006ft 195kts
08-Feb-20 09:25 34.666074 -119.686572 205 10006ft 195kts
08-Feb-20 09:26 34.616318 -119.713450 205 10006ft 195kts
08-Feb-20 09:26 34.574027 -119.736275 205 9666ft 207kts
08-Feb-20 09:28 34.514111 -119.773212 235 8838ft 207kts
08-Feb-20 09:29 34.477759 -119.825986 231 8131ft 198kts
08-Feb-20 09:29 34.449975 -119.866350 232 8007ft 178kts
08-Feb-20 09:30 34.419752 -119.912120 252 8001ft 169kts
08-Feb-20 09:32 34.399771 -119.977377 252 7259ft 174kts
08-Feb-20 09:32 34.386255 -120.021468 252 6583ft 162kts
08-Feb-20 09:33 34.370869 -120.072092 252 5787ft 159kts
08-Feb-20 09:35 34.353908 -120.128671 252 4849ft 146kts
08-Feb-20 09:35 34.355378 -120.163467 337 4170ft 135kts
08-Feb-20 09:36 34.390062 -120.162240 17 3963ft 128kts
08-Feb-20 09:37 34.419649 -120.148711 47 3947ft 107kts
08-Feb-20 09:38 34.422006 -120.111786 86 3992ft 108kts
08-Feb-20 09:39 34.422460 -120.081538 86 3674ft 112kts
08-Feb-20 09:40 34.423134 -120.051627 85 3232ft 113kts
08-Feb-20 09:41 34.423865 -120.020188 86 2736ft 115kts
08-Feb-20 09:42 34.424449 -119.994027 86 2314ft 116kts
08-Feb-20 09:43 34.425000 -119.969336 86 1913ft 116kts
08-Feb-20 09:44 34.425574 -119.943402 87 1490ft 116kts
08-Feb-20 09:45 34.426593 -119.896611 87 731ft 111kts
08-Feb-20 09:46 34.429090 -119.842641 268 16ft 2kts

Navigation Log

Ident Type
Flight plan parsing failed, navigation log unavailable